sensor_id;sensor_type;location;lat;lon;timestamp;P1;durP1;ratioP1;P2;durP2;ratioP2
69280;SDS011;56392;51.082;17.080;2023-05-10T00:01:18;12.90;;;4.60;;
69280;SDS011;56392;51.082;17.080;2023-05-10T00:06:42;10.60;;;3.90;;
69280;SDS011;56392;51.082;17.080;2023-05-10T00:12:06;10.07;;;4.20;;
69280;SDS011;56392;51.082;17.080;2023-05-10T00:17:29;9.93;;;4.30;;
69280;SDS011;56392;51.082;17.080;2023-05-10T00:22:52;11.57;;;4.00;;
69280;SDS011;56392;51.082;17.080;2023-05-10T00:28:16;10.70;;;4.35;;
69280;SDS011;56392;51.082;17.080;2023-05-10T00:33:39;12.50;;;4.60;;
69280;SDS011;56392;51.082;17.080;2023-05-10T00:39:03;12.23;;;4.55;;
69280;SDS011;56392;51.082;17.080;2023-05-10T00:44:27;12.20;;;4.25;;
69280;SDS011;56392;51.082;17.080;2023-05-10T00:49:50;9.77;;;4.20;;
69280;SDS011;56392;51.082;17.080;2023-05-10T00:55:14;13.93;;;4.80;;
69280;SDS011;56392;51.082;17.080;2023-05-10T01:00:38;10.88;;;4.32;;
69280;SDS011;56392;51.082;17.080;2023-05-10T01:06:05;10.65;;;4.40;;
69280;SDS011;56392;51.082;17.080;2023-05-10T01:11:28;10.47;;;4.60;;
69280;SDS011;56392;51.082;17.080;2023-05-10T01:16:52;11.50;;;4.70;;
69280;SDS011;56392;51.082;17.080;2023-05-10T01:22:25;12.75;;;4.25;;
69280;SDS011;56392;51.082;17.080;2023-05-10T01:33:54;12.00;;;4.45;;
69280;SDS011;56392;51.082;17.080;2023-05-10T01:39:23;13.48;;;4.82;;
69280;SDS011;56392;51.082;17.080;2023-05-10T01:44:52;11.73;;;4.60;;
69280;SDS011;56392;51.082;17.080;2023-05-10T01:50:24;11.87;;;4.70;;
69280;SDS011;56392;51.082;17.080;2023-05-10T01:55:51;10.50;;;4.43;;
69280;SDS011;56392;51.082;17.080;2023-05-10T02:01:17;9.88;;;4.40;;
69280;SDS011;56392;51.082;17.080;2023-05-10T02:06:44;11.13;;;4.80;;
69280;SDS011;56392;51.082;17.080;2023-05-10T02:12:09;11.40;;;4.75;;
69280;SDS011;56392;51.082;17.080;2023-05-10T02:17:35;11.57;;;4.70;;
69280;SDS011;56392;51.082;17.080;2023-05-10T02:23:00;11.73;;;4.53;;
69280;SDS011;56392;51.082;17.080;2023-05-10T02:28:26;11.40;;;4.47;;
69280;SDS011;56392;51.082;17.080;2023-05-10T02:33:50;12.60;;;4.70;;
69280;SDS011;56392;51.082;17.080;2023-05-10T02:39:15;11.47;;;4.33;;
69280;SDS011;56392;51.082;17.080;2023-05-10T02:44:41;11.30;;;4.33;;
69280;SDS011;56392;51.082;17.080;2023-05-10T02:50:05;13.20;;;4.63;;
69280;SDS011;56392;51.082;17.080;2023-05-10T02:55:32;10.77;;;4.40;;
69280;SDS011;56392;51.082;17.080;2023-05-10T03:00:59;10.90;;;4.60;;
69280;SDS011;56392;51.082;17.080;2023-05-10T03:06:22;10.85;;;4.43;;
69280;SDS011;56392;51.082;17.080;2023-05-10T03:11:49;11.82;;;4.68;;
69280;SDS011;56392;51.082;17.080;2023-05-10T03:17:23;11.87;;;4.53;;
69280;SDS011;56392;51.082;17.080;2023-05-10T03:22:52;16.13;;;5.30;;
69280;SDS011;56392;51.082;17.080;2023-05-10T03:28:20;11.93;;;4.88;;
69280;SDS011;56392;51.082;17.080;2023-05-10T03:33:47;12.13;;;4.70;;
69280;SDS011;56392;51.082;17.080;2023-05-10T03:39:10;11.73;;;4.27;;
69280;SDS011;56392;51.082;17.080;2023-05-10T03:44:35;11.82;;;4.68;;
69280;SDS011;56392;51.082;17.080;2023-05-10T03:49:58;9.75;;;4.30;;
69280;SDS011;56392;51.082;17.080;2023-05-10T03:55:21;14.23;;;4.57;;
69280;SDS011;56392;51.082;17.080;2023-05-10T04:00:46;13.02;;;4.40;;
69280;SDS011;56392;51.082;17.080;2023-05-10T04:06:09;10.73;;;4.25;;
69280;SDS011;56392;51.082;17.080;2023-05-10T04:11:33;12.30;;;5.00;;
69280;SDS011;56392;51.082;17.080;2023-05-10T04:16:57;9.85;;;4.47;;
69280;SDS011;56392;51.082;17.080;2023-05-10T04:22:20;10.57;;;4.50;;
69280;SDS011;56392;51.082;17.080;2023-05-10T04:27:43;10.43;;;4.50;;
69280;SDS011;56392;51.082;17.080;2023-05-10T04:33:08;11.97;;;4.73;;
69280;SDS011;56392;51.082;17.080;2023-05-10T04:38:31;14.40;;;5.10;;
69280;SDS011;56392;51.082;17.080;2023-05-10T04:43:54;13.38;;;4.93;;
69280;SDS011;56392;51.082;17.080;2023-05-10T04:49:19;11.50;;;4.83;;
69280;SDS011;56392;51.082;17.080;2023-05-10T04:54:42;11.07;;;4.88;;
69280;SDS011;56392;51.082;17.080;2023-05-10T05:00:05;14.82;;;5.10;;
69280;SDS011;56392;51.082;17.080;2023-05-10T05:05:31;10.87;;;4.83;;
69280;SDS011;56392;51.082;17.080;2023-05-10T05:10:54;13.32;;;4.80;;
69280;SDS011;56392;51.082;17.080;2023-05-10T05:16:17;13.63;;;5.05;;
69280;SDS011;56392;51.082;17.080;2023-05-10T05:21:42;17.13;;;5.00;;
69280;SDS011;56392;51.082;17.080;2023-05-10T05:27:05;15.20;;;5.80;;
69280;SDS011;56392;51.082;17.080;2023-05-10T05:32:28;12.98;;;5.20;;
69280;SDS011;56392;51.082;17.080;2023-05-10T05:37:53;11.27;;;5.05;;
69280;SDS011;56392;51.082;17.080;2023-05-10T05:43:17;14.67;;;5.47;;
69280;SDS011;56392;51.082;17.080;2023-05-10T05:48:40;14.00;;;4.97;;
69280;SDS011;56392;51.082;17.080;2023-05-10T05:54:04;12.63;;;4.80;;
69280;SDS011;56392;51.082;17.080;2023-05-10T05:59:27;16.23;;;4.87;;
69280;SDS011;56392;51.082;17.080;2023-05-10T06:04:50;13.48;;;5.13;;
69280;SDS011;56392;51.082;17.080;2023-05-10T06:10:15;13.00;;;4.72;;
69280;SDS011;56392;51.082;17.080;2023-05-10T06:15:38;13.50;;;4.77;;
69280;SDS011;56392;51.082;17.080;2023-05-10T06:21:01;13.80;;;4.90;;
69280;SDS011;56392;51.082;17.080;2023-05-10T06:26:25;11.15;;;4.57;;
69280;SDS011;56392;51.082;17.080;2023-05-10T06:31:48;11.25;;;4.40;;
69280;SDS011;56392;51.082;17.080;2023-05-10T06:37:11;10.43;;;4.33;;
69280;SDS011;56392;51.082;17.080;2023-05-10T06:42:36;10.23;;;4.60;;
69280;SDS011;56392;51.082;17.080;2023-05-10T06:47:59;10.52;;;4.50;;
69280;SDS011;56392;51.082;17.080;2023-05-10T06:53:22;9.13;;;3.87;;
69280;SDS011;56392;51.082;17.080;2023-05-10T06:58:46;10.73;;;4.18;;
69280;SDS011;56392;51.082;17.080;2023-05-10T07:04:09;11.27;;;4.03;;
69280;SDS011;56392;51.082;17.080;2023-05-10T07:09:33;10.53;;;3.90;;
69280;SDS011;56392;51.082;17.080;2023-05-10T07:14:57;10.83;;;4.03;;
69280;SDS011;56392;51.082;17.080;2023-05-10T07:20:20;8.95;;;3.80;;
69280;SDS011;56392;51.082;17.080;2023-05-10T07:25:44;9.48;;;3.85;;
69280;SDS011;56392;51.082;17.080;2023-05-10T07:31:09;9.60;;;3.90;;
69280;SDS011;56392;51.082;17.080;2023-05-10T07:36:32;12.77;;;3.63;;
69280;SDS011;56392;51.082;17.080;2023-05-10T07:41:55;8.75;;;3.63;;
69280;SDS011;56392;51.082;17.080;2023-05-10T07:47:20;8.33;;;3.30;;
69280;SDS011;56392;51.082;17.080;2023-05-10T07:52:43;9.85;;;3.70;;
69280;SDS011;56392;51.082;17.080;2023-05-10T07:58:06;10.02;;;3.22;;
69280;SDS011;56392;51.082;17.080;2023-05-10T08:03:30;6.83;;;2.83;;
69280;SDS011;56392;51.082;17.080;2023-05-10T08:08:53;9.80;;;3.20;;
69280;SDS011;56392;51.082;17.080;2023-05-10T08:14:17;8.65;;;3.10;;
69280;SDS011;56392;51.082;17.080;2023-05-10T08:19:41;9.45;;;3.03;;
69280;SDS011;56392;51.082;17.080;2023-05-10T08:25:04;9.30;;;3.10;;
69280;SDS011;56392;51.082;17.080;2023-05-10T08:30:28;7.80;;;2.70;;
69280;SDS011;56392;51.082;17.080;2023-05-10T08:35:53;7.93;;;3.00;;
69280;SDS011;56392;51.082;17.080;2023-05-10T08:41:16;8.30;;;3.00;;
69280;SDS011;56392;51.082;17.080;2023-05-10T08:46:39;8.80;;;2.78;;
69280;SDS011;56392;51.082;17.080;2023-05-10T08:52:06;7.40;;;3.05;;
69280;SDS011;56392;51.082;17.080;2023-05-10T08:57:30;7.70;;;2.93;;
69280;SDS011;56392;51.082;17.080;2023-05-10T09:02:53;8.23;;;3.00;;
69280;SDS011;56392;51.082;17.080;2023-05-10T09:08:18;10.48;;;2.50;;
69280;SDS011;56392;51.082;17.080;2023-05-10T09:13:42;6.40;;;2.65;;
69280;SDS011;56392;51.082;17.080;2023-05-10T09:19:05;7.27;;;2.70;;
69280;SDS011;56392;51.082;17.080;2023-05-10T09:24:31;7.63;;;2.83;;
69280;SDS011;56392;51.082;17.080;2023-05-10T09:29:54;7.40;;;2.63;;
69280;SDS011;56392;51.082;17.080;2023-05-10T09:35:18;7.63;;;2.90;;
69280;SDS011;56392;51.082;17.080;2023-05-10T09:40:43;7.57;;;3.22;;
69280;SDS011;56392;51.082;17.080;2023-05-10T09:46:15;8.80;;;2.80;;
69280;SDS011;56392;51.082;17.080;2023-05-10T09:51:39;9.27;;;2.90;;
69280;SDS011;56392;51.082;17.080;2023-05-10T09:57:03;8.77;;;2.60;;
69280;SDS011;56392;51.082;17.080;2023-05-10T10:02:28;7.85;;;2.38;;
69280;SDS011;56392;51.082;17.080;2023-05-10T10:07:51;8.30;;;2.70;;
69280;SDS011;56392;51.082;17.080;2023-05-10T10:13:16;8.53;;;2.93;;
69280;SDS011;56392;51.082;17.080;2023-05-10T10:18:39;7.20;;;2.85;;
69280;SDS011;56392;51.082;17.080;2023-05-10T10:24:03;8.05;;;2.80;;
69280;SDS011;56392;51.082;17.080;2023-05-10T10:29:31;7.10;;;2.50;;
69280;SDS011;56392;51.082;17.080;2023-05-10T10:34:59;7.00;;;2.53;;
69280;SDS011;56392;51.082;17.080;2023-05-10T10:40:23;6.57;;;2.85;;
69280;SDS011;56392;51.082;17.080;2023-05-10T10:45:50;6.53;;;2.70;;
69280;SDS011;56392;51.082;17.080;2023-05-10T10:51:32;8.03;;;2.67;;
69280;SDS011;56392;51.082;17.080;2023-05-10T11:02:46;8.98;;;2.95;;
69280;SDS011;56392;51.082;17.080;2023-05-10T11:08:14;7.83;;;2.77;;
69280;SDS011;56392;51.082;17.080;2023-05-10T11:13:40;7.45;;;2.78;;
69280;SDS011;56392;51.082;17.080;2023-05-10T11:19:06;8.43;;;2.58;;
69280;SDS011;56392;51.082;17.080;2023-05-10T11:24:31;6.67;;;2.30;;
69280;SDS011;56392;51.082;17.080;2023-05-10T11:29:54;5.88;;;2.50;;
69280;SDS011;56392;51.082;17.080;2023-05-10T11:35:19;6.60;;;2.20;;
69280;SDS011;56392;51.082;17.080;2023-05-10T11:40:42;7.40;;;2.40;;
69280;SDS011;56392;51.082;17.080;2023-05-10T11:46:06;7.30;;;2.13;;
69280;SDS011;56392;51.082;17.080;2023-05-10T11:51:32;7.07;;;2.40;;
69280;SDS011;56392;51.082;17.080;2023-05-10T11:56:57;7.97;;;2.63;;
69280;SDS011;56392;51.082;17.080;2023-05-10T12:02:19;6.83;;;2.40;;
69280;SDS011;56392;51.082;17.080;2023-05-10T12:07:44;7.55;;;2.53;;
69280;SDS011;56392;51.082;17.080;2023-05-10T12:13:10;9.50;;;2.22;;
69280;SDS011;56392;51.082;17.080;2023-05-10T12:18:35;6.27;;;2.20;;
69280;SDS011;56392;51.082;17.080;2023-05-10T12:24:04;8.68;;;2.10;;
69280;SDS011;56392;51.082;17.080;2023-05-10T12:29:29;8.43;;;2.13;;
69280;SDS011;56392;51.082;17.080;2023-05-10T12:34:52;6.67;;;2.30;;
69280;SDS011;56392;51.082;17.080;2023-05-10T12:40:17;8.67;;;2.30;;
69280;SDS011;56392;51.082;17.080;2023-05-10T12:45:40;8.93;;;2.40;;
69280;SDS011;56392;51.082;17.080;2023-05-10T12:51:03;6.68;;;2.20;;
69280;SDS011;56392;51.082;17.080;2023-05-10T12:56:31;6.50;;;2.00;;
69280;SDS011;56392;51.082;17.080;2023-05-10T13:01:56;6.43;;;2.10;;
69280;SDS011;56392;51.082;17.080;2023-05-10T13:07:20;6.45;;;1.90;;
69280;SDS011;56392;51.082;17.080;2023-05-10T13:12:45;5.67;;;1.90;;
69280;SDS011;56392;51.082;17.080;2023-05-10T13:18:08;6.28;;;1.80;;
69280;SDS011;56392;51.082;17.080;2023-05-10T13:23:31;7.68;;;1.90;;
69280;SDS011;56392;51.082;17.080;2023-05-10T13:28:56;7.07;;;2.03;;
69280;SDS011;56392;51.082;17.080;2023-05-10T13:34:19;7.57;;;1.90;;
69280;SDS011;56392;51.082;17.080;2023-05-10T13:39:42;8.52;;;2.40;;
69280;SDS011;56392;51.082;17.080;2023-05-10T13:45:07;7.18;;;2.10;;
69280;SDS011;56392;51.082;17.080;2023-05-10T13:50:33;6.40;;;2.40;;
69280;SDS011;56392;51.082;17.080;2023-05-10T13:55:56;5.20;;;1.73;;
69280;SDS011;56392;51.082;17.080;2023-05-10T14:01:21;6.75;;;1.90;;
69280;SDS011;56392;51.082;17.080;2023-05-10T14:06:44;5.70;;;1.97;;
69280;SDS011;56392;51.082;17.080;2023-05-10T14:12:07;5.57;;;1.70;;
69280;SDS011;56392;51.082;17.080;2023-05-10T14:17:32;6.05;;;1.90;;
69280;SDS011;56392;51.082;17.080;2023-05-10T14:22:55;6.07;;;1.70;;
69280;SDS011;56392;51.082;17.080;2023-05-10T14:28:18;5.03;;;1.80;;
69280;SDS011;56392;51.082;17.080;2023-05-10T14:33:43;6.35;;;1.85;;
69280;SDS011;56392;51.082;17.080;2023-05-10T14:39:06;5.38;;;1.60;;
69280;SDS011;56392;51.082;17.080;2023-05-10T14:44:31;9.40;;;1.60;;
69280;SDS011;56392;51.082;17.080;2023-05-10T14:49:56;7.80;;;2.08;;
69280;SDS011;56392;51.082;17.080;2023-05-10T14:55:19;4.82;;;1.60;;
69280;SDS011;56392;51.082;17.080;2023-05-10T15:00:43;4.73;;;1.57;;
69280;SDS011;56392;51.082;17.080;2023-05-10T15:06:09;4.68;;;1.52;;
69280;SDS011;56392;51.082;17.080;2023-05-10T15:11:32;4.85;;;1.60;;
69280;SDS011;56392;51.082;17.080;2023-05-10T15:16:55;5.30;;;1.57;;
69280;SDS011;56392;51.082;17.080;2023-05-10T15:22:20;6.20;;;1.60;;
69280;SDS011;56392;51.082;17.080;2023-05-10T15:27:43;8.25;;;1.40;;
69280;SDS011;56392;51.082;17.080;2023-05-10T15:33:06;7.30;;;1.55;;
69280;SDS011;56392;51.082;17.080;2023-05-10T15:43:58;6.88;;;1.80;;
69280;SDS011;56392;51.082;17.080;2023-05-10T15:49:22;8.32;;;2.13;;
69280;SDS011;56392;51.082;17.080;2023-05-10T15:54:47;8.67;;;2.50;;
69280;SDS011;56392;51.082;17.080;2023-05-10T16:00:12;5.38;;;1.80;;
69280;SDS011;56392;51.082;17.080;2023-05-10T16:05:36;6.13;;;2.00;;
69280;SDS011;56392;51.082;17.080;2023-05-10T16:11:02;6.13;;;1.90;;
69280;SDS011;56392;51.082;17.080;2023-05-10T16:16:27;4.33;;;1.30;;
69280;SDS011;56392;51.082;17.080;2023-05-10T16:21:53;8.43;;;1.80;;
69280;SDS011;56392;51.082;17.080;2023-05-10T16:27:20;5.70;;;2.03;;
69280;SDS011;56392;51.082;17.080;2023-05-10T16:32:44;6.07;;;1.87;;
69280;SDS011;56392;51.082;17.080;2023-05-10T16:38:09;7.35;;;2.05;;
69280;SDS011;56392;51.082;17.080;2023-05-10T16:43:34;5.20;;;1.80;;
69280;SDS011;56392;51.082;17.080;2023-05-10T16:48:58;6.03;;;2.10;;
69280;SDS011;56392;51.082;17.080;2023-05-10T16:54:21;5.85;;;1.88;;
69280;SDS011;56392;51.082;17.080;2023-05-10T16:59:46;21.33;;;5.30;;
69280;SDS011;56392;51.082;17.080;2023-05-10T17:05:09;12.47;;;3.27;;
69280;SDS011;56392;51.082;17.080;2023-05-10T17:10:33;7.37;;;1.90;;
69280;SDS011;56392;51.082;17.080;2023-05-10T17:15:59;6.90;;;1.90;;
69280;SDS011;56392;51.082;17.080;2023-05-10T17:21:24;9.27;;;2.25;;
69280;SDS011;56392;51.082;17.080;2023-05-10T17:26:49;7.87;;;2.40;;
69280;SDS011;56392;51.082;17.080;2023-05-10T17:32:13;7.95;;;3.42;;
69280;SDS011;56392;51.082;17.080;2023-05-10T17:37:37;8.55;;;2.60;;
69280;SDS011;56392;51.082;17.080;2023-05-10T17:43:00;8.63;;;2.30;;
69280;SDS011;56392;51.082;17.080;2023-05-10T17:48:24;8.82;;;3.33;;
69280;SDS011;56392;51.082;17.080;2023-05-10T17:53:47;9.63;;;3.38;;
69280;SDS011;56392;51.082;17.080;2023-05-10T17:59:11;7.50;;;2.57;;
69280;SDS011;56392;51.082;17.080;2023-05-10T18:04:37;8.83;;;2.60;;
69280;SDS011;56392;51.082;17.080;2023-05-10T18:10:01;9.00;;;2.40;;
69280;SDS011;56392;51.082;17.080;2023-05-10T18:15:25;7.05;;;1.90;;
69280;SDS011;56392;51.082;17.080;2023-05-10T18:20:50;5.97;;;2.17;;
69280;SDS011;56392;51.082;17.080;2023-05-10T18:26:17;7.20;;;2.50;;
69280;SDS011;56392;51.082;17.080;2023-05-10T18:31:40;8.30;;;2.35;;
69280;SDS011;56392;51.082;17.080;2023-05-10T18:37:04;9.87;;;3.00;;
69280;SDS011;56392;51.082;17.080;2023-05-10T18:42:28;10.35;;;2.85;;
69280;SDS011;56392;51.082;17.080;2023-05-10T18:47:52;13.32;;;6.40;;
69280;SDS011;56392;51.082;17.080;2023-05-10T18:53:17;8.23;;;3.03;;
69280;SDS011;56392;51.082;17.080;2023-05-10T18:58:41;6.77;;;2.60;;
69280;SDS011;56392;51.082;17.080;2023-05-10T19:04:04;6.72;;;2.70;;
69280;SDS011;56392;51.082;17.080;2023-05-10T19:09:30;7.28;;;2.55;;
69280;SDS011;56392;51.082;17.080;2023-05-10T19:14:54;7.13;;;2.80;;
69280;SDS011;56392;51.082;17.080;2023-05-10T19:20:17;8.20;;;3.00;;
69280;SDS011;56392;51.082;17.080;2023-05-10T19:25:43;10.70;;;4.30;;
69280;SDS011;56392;51.082;17.080;2023-05-10T19:31:06;10.87;;;5.20;;
69280;SDS011;56392;51.082;17.080;2023-05-10T19:36:29;10.75;;;4.70;;
69280;SDS011;56392;51.082;17.080;2023-05-10T19:41:53;10.13;;;4.75;;
69280;SDS011;56392;51.082;17.080;2023-05-10T19:47:16;9.00;;;3.73;;
69280;SDS011;56392;51.082;17.080;2023-05-10T19:52:39;11.00;;;3.70;;
69280;SDS011;56392;51.082;17.080;2023-05-10T19:58:04;11.70;;;4.03;;
69280;SDS011;56392;51.082;17.080;2023-05-10T20:03:27;10.95;;;4.47;;
69280;SDS011;56392;51.082;17.080;2023-05-10T20:08:50;10.47;;;5.00;;
69280;SDS011;56392;51.082;17.080;2023-05-10T20:14:14;10.23;;;4.90;;
69280;SDS011;56392;51.082;17.080;2023-05-10T20:19:39;12.13;;;4.70;;
69280;SDS011;56392;51.082;17.080;2023-05-10T20:25:02;10.53;;;4.10;;
69280;SDS011;56392;51.082;17.080;2023-05-10T20:30:28;9.23;;;4.18;;
69280;SDS011;56392;51.082;17.080;2023-05-10T20:35:51;11.73;;;4.40;;
69280;SDS011;56392;51.082;17.080;2023-05-10T20:41:14;9.30;;;4.47;;
69280;SDS011;56392;51.082;17.080;2023-05-10T20:46:38;12.37;;;4.80;;
69280;SDS011;56392;51.082;17.080;2023-05-10T20:52:01;10.63;;;4.28;;
69280;SDS011;56392;51.082;17.080;2023-05-10T20:57:24;10.13;;;4.18;;
69280;SDS011;56392;51.082;17.080;2023-05-10T21:02:49;10.93;;;4.33;;
69280;SDS011;56392;51.082;17.080;2023-05-10T21:08:12;11.30;;;3.92;;
69280;SDS011;56392;51.082;17.080;2023-05-10T21:13:35;9.43;;;4.07;;
69280;SDS011;56392;51.082;17.080;2023-05-10T21:18:59;13.47;;;4.10;;
69280;SDS011;56392;51.082;17.080;2023-05-10T21:24:22;8.70;;;3.92;;
69280;SDS011;56392;51.082;17.080;2023-05-10T21:29:45;10.30;;;4.25;;
69280;SDS011;56392;51.082;17.080;2023-05-10T21:35:10;10.47;;;4.13;;
69280;SDS011;56392;51.082;17.080;2023-05-10T21:40:33;12.87;;;4.47;;
69280;SDS011;56392;51.082;17.080;2023-05-10T21:45:56;9.35;;;4.30;;
69280;SDS011;56392;51.082;17.080;2023-05-10T21:51:20;10.15;;;4.75;;
69280;SDS011;56392;51.082;17.080;2023-05-10T21:56:43;9.93;;;4.23;;
69280;SDS011;56392;51.082;17.080;2023-05-10T22:02:06;10.77;;;3.92;;
69280;SDS011;56392;51.082;17.080;2023-05-10T22:07:31;12.82;;;4.22;;
69280;SDS011;56392;51.082;17.080;2023-05-10T22:12:54;13.27;;;4.10;;
69280;SDS011;56392;51.082;17.080;2023-05-10T22:18:17;10.32;;;4.20;;
69280;SDS011;56392;51.082;17.080;2023-05-10T22:23:41;8.95;;;4.10;;
69280;SDS011;56392;51.082;17.080;2023-05-10T22:29:04;8.60;;;3.90;;
69280;SDS011;56392;51.082;17.080;2023-05-10T22:34:27;9.07;;;3.90;;
69280;SDS011;56392;51.082;17.080;2023-05-10T22:39:52;9.80;;;4.00;;
69280;SDS011;56392;51.082;17.080;2023-05-10T22:45:15;8.40;;;3.83;;
69280;SDS011;56392;51.082;17.080;2023-05-10T22:50:38;9.63;;;3.87;;
69280;SDS011;56392;51.082;17.080;2023-05-10T22:56:02;10.07;;;3.97;;
69280;SDS011;56392;51.082;17.080;2023-05-10T23:01:26;8.38;;;3.97;;
69280;SDS011;56392;51.082;17.080;2023-05-10T23:06:50;8.87;;;3.70;;
69280;SDS011;56392;51.082;17.080;2023-05-10T23:12:15;9.80;;;4.03;;
69280;SDS011;56392;51.082;17.080;2023-05-10T23:17:38;10.60;;;4.18;;
69280;SDS011;56392;51.082;17.080;2023-05-10T23:23:01;11.80;;;3.97;;
69280;SDS011;56392;51.082;17.080;2023-05-10T23:28:25;9.03;;;3.50;;
69280;SDS011;56392;51.082;17.080;2023-05-10T23:33:48;8.93;;;3.88;;
69280;SDS011;56392;51.082;17.080;2023-05-10T23:39:11;9.25;;;4.13;;
69280;SDS011;56392;51.082;17.080;2023-05-10T23:44:36;10.97;;;3.60;;
69280;SDS011;56392;51.082;17.080;2023-05-10T23:49:59;11.60;;;3.85;;
69280;SDS011;56392;51.082;17.080;2023-05-10T23:55:23;10.48;;;3.75;;
